createdAt,value
2022-10-24T00:01:33.759Z,2.90
2022-10-24T00:04:01.656Z,2.90
2022-10-24T00:06:29.530Z,3.10
2022-10-24T00:08:57.468Z,2.85
2022-10-24T00:11:27.423Z,2.70
2022-10-24T00:13:57.460Z,2.80
2022-10-24T00:16:26.751Z,3.05
2022-10-24T00:18:54.657Z,2.47
2022-10-24T00:21:22.875Z,3.13
2022-10-24T00:23:50.861Z,2.85
2022-10-24T00:26:19.113Z,2.33
2022-10-24T00:28:47.484Z,2.58
2022-10-24T00:31:17.306Z,2.55
2022-10-24T00:33:47.806Z,2.75
2022-10-24T00:36:17.942Z,2.58
2022-10-24T00:38:45.982Z,2.58
2022-10-24T00:41:16.249Z,2.40
2022-10-24T00:43:44.022Z,2.65
2022-10-24T00:46:12.602Z,2.17
2022-10-24T00:48:42.862Z,2.80
2022-10-24T00:51:21.450Z,2.53
2022-10-24T00:53:52.165Z,2.17
2022-10-24T00:56:22.802Z,2.30
2022-10-24T00:58:52.898Z,2.13
2022-10-24T01:01:20.826Z,1.90
2022-10-24T01:03:49.537Z,2.20
2022-10-24T01:06:42.658Z,2.10
2022-10-24T01:09:21.821Z,2.00
2022-10-24T01:11:59.380Z,2.05
2022-10-24T01:14:37.970Z,1.83
2022-10-24T01:17:14.178Z,2.15
2022-10-24T01:20:16.094Z,2.10
2022-10-24T01:22:55.702Z,1.85
2022-10-24T01:25:36.116Z,1.50
2022-10-24T01:28:08.683Z,1.45
2022-10-24T01:30:43.248Z,1.42
2022-10-24T01:33:18.610Z,1.67
2022-10-24T01:35:51.175Z,1.20
2022-10-24T01:38:26.839Z,1.55
2022-10-24T01:40:58.674Z,1.40
2022-10-24T01:43:29.740Z,2.03
2022-10-24T01:46:03.329Z,1.33
2022-10-24T01:48:35.606Z,1.80
2022-10-24T01:51:05.452Z,1.60
2022-10-24T01:53:33.361Z,1.42
2022-10-24T01:56:01.898Z,2.15
2022-10-24T01:58:29.625Z,1.50
2022-10-24T02:01:04.141Z,1.60
2022-10-24T02:03:35.896Z,1.90
2022-10-24T02:06:08.716Z,1.90
2022-10-24T02:08:44.471Z,2.00
2022-10-24T02:11:12.854Z,2.25
2022-10-24T02:13:46.079Z,2.35
2022-10-24T02:16:18.737Z,2.28
2022-10-24T02:18:47.353Z,1.98
2022-10-24T02:21:26.858Z,2.30
2022-10-24T02:23:58.354Z,2.10
2022-10-24T02:26:33.684Z,2.45
2022-10-24T02:29:05.457Z,2.38
2022-10-24T02:31:40.075Z,2.10
2022-10-24T02:34:09.927Z,2.60
2022-10-24T02:36:40.896Z,2.30
2022-10-24T02:39:11.545Z,2.40
2022-10-24T02:41:42.725Z,2.35
2022-10-24T02:44:12.504Z,2.38
2022-10-24T02:46:42.835Z,3.20
2022-10-24T02:49:10.858Z,2.40
2022-10-24T02:51:41.604Z,2.20
2022-10-24T02:54:11.026Z,2.13
2022-10-24T02:56:42.568Z,2.17
2022-10-24T02:59:10.512Z,2.30
2022-10-24T03:01:38.615Z,2.70
2022-10-24T03:04:08.231Z,2.15
2022-10-24T03:06:36.077Z,2.42
2022-10-24T03:09:04.180Z,2.28
2022-10-24T03:11:31.945Z,2.15
2022-10-24T03:13:59.684Z,2.10
2022-10-24T03:16:28.559Z,2.30
2022-10-24T03:18:56.379Z,2.08
2022-10-24T03:21:25.785Z,2.40
2022-10-24T03:23:54.057Z,2.40
2022-10-24T03:26:21.866Z,2.70
2022-10-24T03:28:49.892Z,2.20
2022-10-24T03:31:17.752Z,2.40
2022-10-24T03:33:45.478Z,2.50
2022-10-24T03:36:13.296Z,2.35
2022-10-24T03:38:42.366Z,2.22
2022-10-24T03:41:10.159Z,2.67
2022-10-24T03:43:37.971Z,2.20
2022-10-24T03:46:05.900Z,2.88
2022-10-24T03:48:33.750Z,2.33
2022-10-24T03:51:01.585Z,2.40
2022-10-24T03:53:29.388Z,2.40
2022-10-24T03:55:58.483Z,2.33
2022-10-24T03:58:26.326Z,2.58
2022-10-24T04:00:55.355Z,2.17
2022-10-24T04:03:23.253Z,2.80
2022-10-24T04:05:51.087Z,2.15
2022-10-24T04:08:19.915Z,2.33
2022-10-24T04:10:47.765Z,2.08
2022-10-24T04:13:16.950Z,2.30
2022-10-24T04:15:44.781Z,2.55
2022-10-24T04:18:12.694Z,2.40
2022-10-24T04:20:40.425Z,2.13
2022-10-24T04:23:08.963Z,2.38
2022-10-24T04:25:36.781Z,2.22
2022-10-24T04:28:04.968Z,2.08
2022-10-24T04:30:35.711Z,2.50
2022-10-24T04:33:03.573Z,2.75
2022-10-24T04:35:31.422Z,2.30
2022-10-24T04:37:59.470Z,2.20
2022-10-24T04:40:27.337Z,2.30
2022-10-24T04:42:55.119Z,2.28
2022-10-24T04:45:22.989Z,2.67
2022-10-24T04:47:52.059Z,2.63
2022-10-24T04:50:19.959Z,2.40
2022-10-24T04:52:47.900Z,2.22
2022-10-24T04:55:15.855Z,2.35
2022-10-24T04:57:43.949Z,2.67
2022-10-24T05:00:13.086Z,2.45
2022-10-24T05:02:40.994Z,2.70
2022-10-24T05:05:10.410Z,2.60
2022-10-24T05:07:38.791Z,2.75
2022-10-24T05:10:07.450Z,2.60
2022-10-24T05:12:35.222Z,2.80
2022-10-24T05:15:03.174Z,2.47
2022-10-24T05:17:30.952Z,2.53
2022-10-24T05:19:58.754Z,2.40
2022-10-24T05:22:28.556Z,2.80
2022-10-24T05:24:56.372Z,2.70
2022-10-24T05:30:19.723Z,2.65
2022-10-24T05:32:47.869Z,2.53
2022-10-24T05:35:16.055Z,2.47
2022-10-24T05:37:45.262Z,2.30
2022-10-24T05:40:13.976Z,2.45
2022-10-24T05:42:41.971Z,2.47
2022-10-24T05:45:11.997Z,2.20
2022-10-24T05:47:40.065Z,2.72
2022-10-24T05:50:09.260Z,2.20
2022-10-24T05:52:37.133Z,2.60
2022-10-24T05:55:08.649Z,2.53
2022-10-24T05:57:36.747Z,2.55
2022-10-24T06:00:06.429Z,2.50
2022-10-24T06:02:39.860Z,2.50
2022-10-24T06:05:13.046Z,2.50
2022-10-24T06:07:41.962Z,2.35
2022-10-24T06:10:12.787Z,2.60
2022-10-24T06:12:42.095Z,2.28
2022-10-24T06:15:11.033Z,3.20
2022-10-24T06:17:40.206Z,2.20
2022-10-24T06:20:09.433Z,2.17
2022-10-24T06:22:37.157Z,2.47
2022-10-24T06:25:05.557Z,2.35
2022-10-24T06:27:37.244Z,2.47
2022-10-24T06:30:06.294Z,2.17
2022-10-24T06:32:36.959Z,2.53
2022-10-24T06:35:07.243Z,2.75
2022-10-24T06:37:37.284Z,2.70
2022-10-24T06:40:05.475Z,2.50
2022-10-24T06:42:34.662Z,2.38
2022-10-24T06:45:02.725Z,3.10
2022-10-24T06:47:31.965Z,2.58
2022-10-24T06:49:59.722Z,2.53
2022-10-24T06:52:27.481Z,2.50
2022-10-24T06:54:55.796Z,2.67
2022-10-24T06:57:23.729Z,2.45
2022-10-24T06:59:53.884Z,2.38
2022-10-24T07:02:21.748Z,2.45
2022-10-24T07:04:49.515Z,2.60
2022-10-24T07:07:21.519Z,2.40
2022-10-24T07:09:54.091Z,2.47
2022-10-24T07:12:23.031Z,2.97
2022-10-24T07:14:52.113Z,2.78
2022-10-24T07:17:21.055Z,2.13
2022-10-24T07:19:57.044Z,2.40
2022-10-24T07:22:24.977Z,2.40
2022-10-24T07:24:56.985Z,2.20
2022-10-24T07:27:25.554Z,2.35
2022-10-24T07:29:54.777Z,2.22
2022-10-24T07:32:22.658Z,2.58
2022-10-24T07:34:50.799Z,2.70
2022-10-24T07:37:19.358Z,4.70
2022-10-24T07:39:47.364Z,2.58
2022-10-24T07:42:15.933Z,2.70
2022-10-24T07:44:43.754Z,2.03
2022-10-24T07:47:12.929Z,2.33
2022-10-24T07:49:43.870Z,2.58
2022-10-24T07:52:11.887Z,2.33
2022-10-24T07:54:39.596Z,2.80
2022-10-24T07:57:08.414Z,2.40
2022-10-24T07:59:42.190Z,2.30
2022-10-24T08:02:13.047Z,2.38
2022-10-24T08:04:41.335Z,2.15
2022-10-24T08:07:13.297Z,2.47
2022-10-24T08:09:42.370Z,2.30
2022-10-24T08:12:10.612Z,2.33
2022-10-24T08:14:39.147Z,2.90
2022-10-24T08:17:09.910Z,2.35
2022-10-24T08:19:45.585Z,2.30
2022-10-24T08:22:17.615Z,2.03
2022-10-24T08:24:45.682Z,2.55
2022-10-24T08:27:14.103Z,2.67
2022-10-24T08:29:42.263Z,2.60
2022-10-24T08:32:10.044Z,2.22
2022-10-24T08:34:40.206Z,2.15
2022-10-24T08:37:07.966Z,2.42
2022-10-24T08:39:35.748Z,2.58
2022-10-24T08:42:07.165Z,2.50
2022-10-24T08:44:37.897Z,2.17
2022-10-24T08:47:13.602Z,2.22
2022-10-24T08:49:50.261Z,1.90
2022-10-24T08:52:27.530Z,2.28
2022-10-24T08:54:56.500Z,3.33
2022-10-24T08:57:30.375Z,2.20
2022-10-24T09:00:02.087Z,1.70
2022-10-24T09:02:33.194Z,2.22
2022-10-24T09:05:06.447Z,2.17
2022-10-24T09:07:35.124Z,1.85
2022-10-24T09:10:08.724Z,2.60
2022-10-24T09:15:35.565Z,2.17
2022-10-24T09:18:03.427Z,2.10
2022-10-24T09:20:33.566Z,1.67
2022-10-24T09:23:06.130Z,1.70
2022-10-24T09:25:39.008Z,1.90
2022-10-24T09:28:07.688Z,2.22
2022-10-24T09:30:37.419Z,2.00
2022-10-24T09:33:13.962Z,2.08
2022-10-24T09:35:44.230Z,1.83
2022-10-24T09:38:34.157Z,2.20
2022-10-24T09:41:05.504Z,1.70
2022-10-24T09:43:40.058Z,2.13
2022-10-24T09:46:10.540Z,1.83
2022-10-24T09:48:51.985Z,2.63
2022-10-24T09:51:27.322Z,1.90
2022-10-24T09:54:02.455Z,1.67
2022-10-24T09:56:39.084Z,1.77
2022-10-24T09:59:34.745Z,2.13
2022-10-24T10:02:20.016Z,1.77
2022-10-24T10:04:52.038Z,2.00
2022-10-24T10:07:28.179Z,2.13
2022-10-24T10:10:00.861Z,2.10
2022-10-24T10:12:32.319Z,1.80
2022-10-24T10:15:01.988Z,2.45
2022-10-24T10:17:31.863Z,1.48
2022-10-24T10:20:00.331Z,1.92
2022-10-24T10:22:32.973Z,2.17
2022-10-24T10:25:01.736Z,1.80
2022-10-24T10:27:35.824Z,1.80
2022-10-24T10:30:10.158Z,2.45
2022-10-24T10:32:47.706Z,1.85
2022-10-24T10:35:21.110Z,2.10
2022-10-24T10:38:00.061Z,1.25
2022-10-24T10:40:33.312Z,2.00
2022-10-24T10:43:15.183Z,1.17
2022-10-24T10:45:51.586Z,1.75
2022-10-24T10:48:35.957Z,1.45
2022-10-24T10:51:12.689Z,1.58
2022-10-24T10:53:49.903Z,1.33
2022-10-24T10:56:27.518Z,1.67
2022-10-24T10:59:13.604Z,2.00
2022-10-24T11:01:50.284Z,1.08
2022-10-24T11:04:29.555Z,1.48
2022-10-24T11:07:07.471Z,1.70
2022-10-24T11:09:41.982Z,1.27
2022-10-24T11:12:17.050Z,1.42
2022-10-24T11:14:47.859Z,2.20
2022-10-24T11:17:21.278Z,1.50
2022-10-24T11:20:00.716Z,1.40
2022-10-24T11:22:31.805Z,1.35
2022-10-24T11:25:06.592Z,1.42
2022-10-24T11:27:41.241Z,1.23
2022-10-24T11:30:16.481Z,1.30
2022-10-24T11:32:50.823Z,1.23
2022-10-24T11:35:28.649Z,1.10
2022-10-24T11:38:01.224Z,1.27
2022-10-24T11:40:31.603Z,1.30
2022-10-24T11:43:10.790Z,1.40
2022-10-24T11:45:45.488Z,0.85
2022-10-24T11:48:22.295Z,1.48
2022-10-24T11:50:55.131Z,2.00
2022-10-24T11:53:45.726Z,1.20
2022-10-24T11:56:21.326Z,1.30
2022-10-24T11:58:58.417Z,1.25
2022-10-24T12:01:49.195Z,1.25
2022-10-24T12:04:46.747Z,1.42
2022-10-24T12:07:48.615Z,1.13
2022-10-24T12:10:32.105Z,1.30
2022-10-24T12:13:22.166Z,1.67
2022-10-24T12:16:02.301Z,1.77
2022-10-24T12:18:33.818Z,1.45
2022-10-24T12:21:05.675Z,1.50
2022-10-24T12:23:34.413Z,3.50
2022-10-24T12:26:07.859Z,1.48
2022-10-24T12:29:04.741Z,1.40
2022-10-24T12:31:34.277Z,1.80
2022-10-24T12:34:31.900Z,1.52
2022-10-24T12:37:09.351Z,1.38
2022-10-24T12:39:39.177Z,1.40
2022-10-24T12:42:18.395Z,1.67
2022-10-24T12:44:50.396Z,1.65
2022-10-24T12:47:39.864Z,1.63
2022-10-24T12:50:45.243Z,1.50
2022-10-24T12:53:20.485Z,1.70
2022-10-24T12:56:10.569Z,1.50
2022-10-24T12:58:39.340Z,1.30
2022-10-24T13:01:12.821Z,1.33
2022-10-24T13:03:57.286Z,1.40
2022-10-24T13:06:29.796Z,1.33
2022-10-24T13:09:13.659Z,1.27
2022-10-24T13:11:54.512Z,1.20
2022-10-24T13:14:49.278Z,1.38
2022-10-24T13:17:24.169Z,1.50
2022-10-24T13:20:04.781Z,1.52
2022-10-24T13:22:37.347Z,1.35
2022-10-24T13:25:21.361Z,1.40
2022-10-24T13:28:40.234Z,1.48
2022-10-24T13:31:40.332Z,1.17
2022-10-24T13:34:22.971Z,1.48
2022-10-24T13:36:54.351Z,1.20
2022-10-24T13:39:26.114Z,1.35
2022-10-24T13:42:00.258Z,1.23
2022-10-24T13:44:35.159Z,1.30
2022-10-24T13:47:15.348Z,1.20
2022-10-24T13:49:53.519Z,1.40
2022-10-24T13:52:26.607Z,1.40
2022-10-24T13:55:00.797Z,1.20
2022-10-24T13:57:33.731Z,1.00
2022-10-24T14:00:04.218Z,1.38
2022-10-24T14:02:42.455Z,1.88
2022-10-24T14:05:26.971Z,1.13
2022-10-24T14:07:55.360Z,1.10
2022-10-24T14:10:23.410Z,1.15
2022-10-24T14:12:57.333Z,1.08
2022-10-24T14:15:28.891Z,1.15
2022-10-24T14:17:59.854Z,1.15
2022-10-24T14:20:32.571Z,1.30
2022-10-24T14:23:02.097Z,1.10
2022-10-24T14:25:35.154Z,1.00
2022-10-24T14:28:04.871Z,1.10
2022-10-24T14:30:35.127Z,1.23
2022-10-24T14:33:19.610Z,0.90
2022-10-24T14:35:51.250Z,1.45
2022-10-24T14:38:23.645Z,1.00
2022-10-24T14:41:06.409Z,1.27
2022-10-24T14:43:37.550Z,0.90
2022-10-24T14:46:26.007Z,1.38
2022-10-24T14:48:54.669Z,1.05
2022-10-24T14:51:28.982Z,1.08
2022-10-24T14:53:58.154Z,1.00
2022-10-24T14:56:28.139Z,1.23
2022-10-24T14:59:01.043Z,1.40
2022-10-24T15:01:30.032Z,1.30
2022-10-24T15:04:01.820Z,0.98
2022-10-24T15:06:38.860Z,1.38
2022-10-24T15:09:18.043Z,1.40
2022-10-24T15:11:47.571Z,1.20
2022-10-24T15:14:39.507Z,1.20
2022-10-24T15:17:29.819Z,1.17
2022-10-24T15:20:03.424Z,1.13
2022-10-24T15:22:35.805Z,1.20
2022-10-24T15:25:08.488Z,1.23
2022-10-24T15:27:41.575Z,1.27
2022-10-24T15:30:15.615Z,1.17
2022-10-24T15:32:43.498Z,1.00
2022-10-24T15:35:16.407Z,1.20
2022-10-24T15:37:56.217Z,1.00
2022-10-24T15:40:27.317Z,1.23
2022-10-24T15:42:55.190Z,1.33
2022-10-24T15:45:23.416Z,1.02
2022-10-24T15:47:52.833Z,1.13
2022-10-24T15:52:57.291Z,0.90
2022-10-24T15:55:27.086Z,1.23
2022-10-24T15:57:57.014Z,1.20
2022-10-24T16:00:26.405Z,0.80
2022-10-24T16:02:57.071Z,1.20
2022-10-24T16:05:28.965Z,1.30
2022-10-24T16:07:58.173Z,1.55
2022-10-24T16:10:26.144Z,1.60
2022-10-24T16:12:54.057Z,1.30
2022-10-24T16:15:26.641Z,1.02
2022-10-24T16:17:55.035Z,1.00
2022-10-24T16:20:23.015Z,1.40
2022-10-24T16:22:51.510Z,1.13
2022-10-24T16:25:22.893Z,1.50
2022-10-24T16:27:51.622Z,0.93
2022-10-24T16:30:21.769Z,1.30
2022-10-24T16:33:17.409Z,1.10
2022-10-24T16:35:45.324Z,1.98
2022-10-24T16:38:13.272Z,1.40
2022-10-24T16:40:44.381Z,1.13
2022-10-24T16:43:14.399Z,1.42
2022-10-24T16:45:42.667Z,1.15
2022-10-24T16:48:10.638Z,1.10
2022-10-24T16:50:42.295Z,1.35
2022-10-24T16:53:10.466Z,1.35
2022-10-24T16:55:38.585Z,1.25
2022-10-24T16:58:11.512Z,1.48
2022-10-24T17:00:39.445Z,1.00
2022-10-24T17:03:07.323Z,1.40
2022-10-24T17:05:35.435Z,1.15
2022-10-24T17:08:03.355Z,1.48
2022-10-24T17:13:25.533Z,1.30
2022-10-24T17:15:53.392Z,0.93
2022-10-24T17:18:23.371Z,1.17
2022-10-24T17:20:58.495Z,1.10
2022-10-24T17:23:27.327Z,1.20
2022-10-24T17:25:56.032Z,1.50
2022-10-24T17:31:07.846Z,1.05
2022-10-24T17:33:37.268Z,1.30
2022-10-24T17:36:07.485Z,1.05
2022-10-24T17:38:44.669Z,1.05
2022-10-24T17:41:19.617Z,1.20
2022-10-24T17:43:48.535Z,1.23
2022-10-24T17:46:18.597Z,1.35
2022-10-24T17:48:46.521Z,1.30
2022-10-24T17:51:18.059Z,1.42
2022-10-24T17:53:45.978Z,1.50
2022-10-24T17:56:14.232Z,1.27
2022-10-24T17:58:42.224Z,1.20
2022-10-24T18:01:11.886Z,1.48
2022-10-24T18:03:41.180Z,0.90
2022-10-24T18:06:11.511Z,1.40
2022-10-24T18:08:39.538Z,1.25
2022-10-24T18:11:09.030Z,1.40
2022-10-24T18:13:37.383Z,1.40
2022-10-24T18:16:08.198Z,1.45
2022-10-24T18:18:36.171Z,1.10
2022-10-24T18:21:10.352Z,1.13
2022-10-24T18:23:40.886Z,1.45
2022-10-24T18:26:09.142Z,1.10
2022-10-24T18:28:42.049Z,1.10
2022-10-24T18:31:11.483Z,1.38
2022-10-24T18:33:40.184Z,1.20
2022-10-24T18:36:12.427Z,1.10
2022-10-24T18:38:41.291Z,1.17
2022-10-24T18:41:34.580Z,1.20
2022-10-24T18:44:13.629Z,1.23
2022-10-24T18:46:42.218Z,1.45
2022-10-24T18:49:11.416Z,2.17
2022-10-24T18:51:50.333Z,1.00
2022-10-24T18:54:24.679Z,1.70
2022-10-24T18:56:52.878Z,1.35
2022-10-24T18:59:22.358Z,1.20
2022-10-24T19:02:03.648Z,1.30
2022-10-24T19:04:33.840Z,1.00
2022-10-24T19:07:04.134Z,1.38
2022-10-24T19:09:32.006Z,0.95
2022-10-24T19:12:00.002Z,1.10
2022-10-24T19:14:28.515Z,1.17
2022-10-24T19:16:58.113Z,0.68
2022-10-24T19:19:29.536Z,1.00
2022-10-24T19:21:57.513Z,1.15
2022-10-24T19:24:28.010Z,0.90
2022-10-24T19:26:55.830Z,1.40
2022-10-24T19:29:23.568Z,1.05
2022-10-24T19:31:51.463Z,1.17
2022-10-24T19:34:19.310Z,1.42
2022-10-24T19:36:47.047Z,1.10
2022-10-24T19:39:14.938Z,0.80
2022-10-24T19:41:44.008Z,0.95
2022-10-24T19:44:11.732Z,1.00
2022-10-24T19:46:39.571Z,1.10
2022-10-24T19:49:07.301Z,1.63
2022-10-24T19:51:35.055Z,0.93
2022-10-24T19:54:03.083Z,1.00
2022-10-24T19:56:31.341Z,0.90
2022-10-24T19:59:29.689Z,1.10
2022-10-24T20:04:26.252Z,1.10
2022-10-24T20:06:54.032Z,0.70
2022-10-24T20:09:22.063Z,0.75
2022-10-24T20:11:49.827Z,0.77
2022-10-24T20:14:17.818Z,0.90
2022-10-24T20:16:46.899Z,1.13
2022-10-24T20:19:14.639Z,0.52
2022-10-24T20:21:42.524Z,1.27
2022-10-24T20:24:10.760Z,0.60
2022-10-24T20:26:38.714Z,0.70
2022-10-24T20:29:06.668Z,0.70
2022-10-24T20:31:36.388Z,0.70
2022-10-24T20:34:09.688Z,0.55
2022-10-24T20:36:38.538Z,0.90
2022-10-24T20:39:07.617Z,1.05
2022-10-24T20:41:36.251Z,1.02
2022-10-24T20:44:04.414Z,0.95
2022-10-24T20:46:32.634Z,1.35
2022-10-24T20:49:01.182Z,1.30
2022-10-24T20:51:30.278Z,1.50
2022-10-24T20:53:58.043Z,1.60
2022-10-24T20:56:26.689Z,1.40
2022-10-24T20:58:56.475Z,1.55
2022-10-24T21:01:25.921Z,1.25
2022-10-24T21:03:55.215Z,1.10
2022-10-24T21:06:24.516Z,1.20
2022-10-24T21:08:55.681Z,1.30
2022-10-24T21:11:26.573Z,2.10
2022-10-24T21:13:56.040Z,1.40
2022-10-24T21:16:24.608Z,1.40
2022-10-24T21:18:52.993Z,1.83
2022-10-24T21:21:22.185Z,1.30
2022-10-24T21:23:52.861Z,1.50
2022-10-24T21:26:21.308Z,1.30
2022-10-24T21:28:49.426Z,1.20
2022-10-24T21:31:18.653Z,1.38
2022-10-24T21:33:46.928Z,1.30
2022-10-24T21:36:16.617Z,1.52
2022-10-24T21:38:48.264Z,1.60
2022-10-24T21:41:18.363Z,1.50
2022-10-24T21:43:46.450Z,2.15
2022-10-24T21:46:16.769Z,2.67
2022-10-24T21:48:45.563Z,1.90
2022-10-24T21:51:15.167Z,2.05
2022-10-24T21:53:45.454Z,2.00
2022-10-24T21:56:15.487Z,2.30
2022-10-24T21:58:47.942Z,1.75
2022-10-24T22:01:19.139Z,2.40
2022-10-24T22:03:48.074Z,2.42
2022-10-24T22:06:17.421Z,1.90
2022-10-24T22:08:46.231Z,2.47
2022-10-24T22:11:16.997Z,2.10
2022-10-24T22:13:46.681Z,2.70
2022-10-24T22:16:15.242Z,2.35
2022-10-24T22:18:43.579Z,2.85
2022-10-24T22:21:19.718Z,2.42
2022-10-24T22:23:47.490Z,2.22
2022-10-24T22:26:15.209Z,2.40
2022-10-24T22:28:42.941Z,2.03
2022-10-24T22:31:15.187Z,2.30
2022-10-24T22:33:43.964Z,2.40
2022-10-24T22:36:18.665Z,2.28
2022-10-24T22:38:46.877Z,2.65
2022-10-24T22:41:15.023Z,3.22
2022-10-24T22:43:43.186Z,2.70
2022-10-24T22:46:27.853Z,2.72
2022-10-24T22:49:00.079Z,2.78
2022-10-24T22:51:28.376Z,2.63
2022-10-24T22:53:56.622Z,3.22
2022-10-24T22:56:30.674Z,3.53
2022-10-24T22:58:59.949Z,3.35
2022-10-24T23:01:43.266Z,4.40
2022-10-24T23:04:23.467Z,3.08
2022-10-24T23:06:55.029Z,3.50
2022-10-24T23:09:22.825Z,3.67
2022-10-24T23:11:51.138Z,3.42
2022-10-24T23:14:19.381Z,3.45
2022-10-24T23:16:54.266Z,3.42
2022-10-24T23:19:24.497Z,3.30
2022-10-24T23:21:56.942Z,4.15
2022-10-24T23:24:25.689Z,3.92
2022-10-24T23:27:14.188Z,3.92
2022-10-24T23:29:43.941Z,3.90
2022-10-24T23:32:20.213Z,3.65
2022-10-24T23:34:48.713Z,4.30
2022-10-24T23:37:27.501Z,3.80
2022-10-24T23:39:55.747Z,4.05
2022-10-24T23:42:24.137Z,4.43
2022-10-24T23:44:52.532Z,3.50
2022-10-24T23:47:39.486Z,3.92
2022-10-24T23:50:16.037Z,4.10
2022-10-24T23:53:00.689Z,3.90
2022-10-24T23:55:31.077Z,4.53
2022-10-24T23:58:01.014Z,4.45
